sensor_id;sensor_type;location;lat;lon;timestamp;pressure;altitude;pressure_sealevel;temperature;humidity
18137;BME280;9194;42.632;23.298;2022-07-23T00:02:32;92920.84;;;18.93;70.88
18137;BME280;9194;42.632;23.298;2022-07-23T00:07:33;92918.97;;;18.98;72.99
18137;BME280;9194;42.632;23.298;2022-07-23T00:12:35;92915.56;;;18.93;72.77
18137;BME280;9194;42.632;23.298;2022-07-23T00:17:36;92916.88;;;18.85;72.61
18137;BME280;9194;42.632;23.298;2022-07-23T00:22:54;92922.16;;;18.80;73.77
18137;BME280;9194;42.632;23.298;2022-07-23T00:27:57;92924.78;;;18.75;70.71
18137;BME280;9194;42.632;23.298;2022-07-23T00:33:02;92931.09;;;18.69;71.37
18137;BME280;9194;42.632;23.298;2022-07-23T00:38:04;92929.53;;;18.63;72.05
18137;BME280;9194;42.632;23.298;2022-07-23T00:43:06;92925.00;;;18.58;71.72
18137;BME280;9194;42.632;23.298;2022-07-23T00:48:07;92919.19;;;18.51;73.57
18137;BME280;9194;42.632;23.298;2022-07-23T00:53:09;92917.91;;;18.64;74.42
18137;BME280;9194;42.632;23.298;2022-07-23T00:58:11;92917.06;;;18.53;75.43
18137;BME280;9194;42.632;23.298;2022-07-23T01:03:12;92927.34;;;18.50;75.42
18137;BME280;9194;42.632;23.298;2022-07-23T01:08:14;92915.78;;;18.56;75.65
18137;BME280;9194;42.632;23.298;2022-07-23T01:13:18;92912.03;;;18.41;74.06
18137;BME280;9194;42.632;23.298;2022-07-23T01:18:21;92905.47;;;18.34;74.65
18137;BME280;9194;42.632;23.298;2022-07-23T01:23:27;92905.97;;;18.36;76.58
18137;BME280;9194;42.632;23.298;2022-07-23T01:28:31;92905.19;;;18.35;75.80
18137;BME280;9194;42.632;23.298;2022-07-23T01:33:33;92904.38;;;18.25;76.32
18137;BME280;9194;42.632;23.298;2022-07-23T01:38:36;92907.81;;;18.25;75.57
18137;BME280;9194;42.632;23.298;2022-07-23T01:43:41;92912.81;;;18.27;76.22
18137;BME280;9194;42.632;23.298;2022-07-23T01:48:43;92909.88;;;18.18;76.84
18137;BME280;9194;42.632;23.298;2022-07-23T01:54:03;92897.75;;;18.17;75.69
18137;BME280;9194;42.632;23.298;2022-07-23T01:59:04;92906.72;;;18.11;75.80
18137;BME280;9194;42.632;23.298;2022-07-23T02:04:06;92912.22;;;17.99;75.98
18137;BME280;9194;42.632;23.298;2022-07-23T02:09:07;92907.72;;;17.95;76.90
18137;BME280;9194;42.632;23.298;2022-07-23T02:14:31;92907.19;;;17.93;76.73
18137;BME280;9194;42.632;23.298;2022-07-23T02:19:33;92902.97;;;17.92;76.22
18137;BME280;9194;42.632;23.298;2022-07-23T02:24:36;92904.03;;;17.91;76.58
18137;BME280;9194;42.632;23.298;2022-07-23T02:29:38;92908.25;;;17.97;75.81
18137;BME280;9194;42.632;23.298;2022-07-23T02:34:39;92911.13;;;17.95;75.68
18137;BME280;9194;42.632;23.298;2022-07-23T02:39:41;92909.03;;;17.87;75.70
18137;BME280;9194;42.632;23.298;2022-07-23T02:44:42;92914.53;;;17.81;76.65
18137;BME280;9194;42.632;23.298;2022-07-23T02:49:44;92914.78;;;17.79;76.94
18137;BME280;9194;42.632;23.298;2022-07-23T02:54:45;92913.13;;;17.63;77.91
18137;BME280;9194;42.632;23.298;2022-07-23T02:59:49;92916.81;;;17.67;77.61
18137;BME280;9194;42.632;23.298;2022-07-23T03:04:53;92919.72;;;17.71;76.96
18137;BME280;9194;42.632;23.298;2022-07-23T03:09:54;92927.34;;;17.67;77.53
18137;BME280;9194;42.632;23.298;2022-07-23T03:14:57;92931.59;;;17.73;76.27
18137;BME280;9194;42.632;23.298;2022-07-23T03:19:58;92934.50;;;17.77;76.44
18137;BME280;9194;42.632;23.298;2022-07-23T03:25:03;92932.97;;;17.81;77.85
18137;BME280;9194;42.632;23.298;2022-07-23T03:36:02;92934.81;;;17.80;77.90
18137;BME280;9194;42.632;23.298;2022-07-23T03:41:06;92937.44;;;17.85;77.08
18137;BME280;9194;42.632;23.298;2022-07-23T03:46:09;92946.41;;;17.89;78.30
18137;BME280;9194;42.632;23.298;2022-07-23T03:51:11;92940.41;;;17.99;79.75
18137;BME280;9194;42.632;23.298;2022-07-23T03:56:12;92939.34;;;18.00;81.05
18137;BME280;9194;42.632;23.298;2022-07-23T04:01:14;92942.00;;;18.05;82.85
18137;BME280;9194;42.632;23.298;2022-07-23T04:06:15;92937.56;;;18.11;84.64
18137;BME280;9194;42.632;23.298;2022-07-23T04:11:17;92935.19;;;18.19;87.57
18137;BME280;9194;42.632;23.298;2022-07-23T04:16:18;92939.16;;;18.27;89.50
18137;BME280;9194;42.632;23.298;2022-07-23T04:21:20;92944.75;;;18.45;92.12
18137;BME280;9194;42.632;23.298;2022-07-23T04:26:23;92952.16;;;18.59;93.64
18137;BME280;9194;42.632;23.298;2022-07-23T04:31:24;92952.22;;;18.74;93.86
18137;BME280;9194;42.632;23.298;2022-07-23T04:36:26;92953.00;;;18.95;90.47
18137;BME280;9194;42.632;23.298;2022-07-23T04:41:27;92957.75;;;19.03;82.37
18137;BME280;9194;42.632;23.298;2022-07-23T04:46:34;92955.09;;;19.33;85.40
18137;BME280;9194;42.632;23.298;2022-07-23T04:51:48;92957.47;;;19.50;83.29
18137;BME280;9194;42.632;23.298;2022-07-23T04:56:52;92958.91;;;20.06;84.27
18137;BME280;9194;42.632;23.298;2022-07-23T05:01:54;92962.56;;;20.10;84.67
18137;BME280;9194;42.632;23.298;2022-07-23T05:06:55;92963.03;;;20.33;80.42
18137;BME280;9194;42.632;23.298;2022-07-23T05:11:57;92963.78;;;20.38;82.94
18137;BME280;9194;42.632;23.298;2022-07-23T05:16:59;92964.56;;;20.49;84.71
18137;BME280;9194;42.632;23.298;2022-07-23T05:22:01;92971.53;;;20.74;76.64
18137;BME280;9194;42.632;23.298;2022-07-23T05:27:03;92972.59;;;21.17;76.68
18137;BME280;9194;42.632;23.298;2022-07-23T05:32:05;92980.00;;;21.20;79.18
18137;BME280;9194;42.632;23.298;2022-07-23T05:37:09;92972.53;;;21.22;80.24
18137;BME280;9194;42.632;23.298;2022-07-23T05:42:10;92972.78;;;21.25;81.33
18137;BME280;9194;42.632;23.298;2022-07-23T05:47:11;92970.47;;;21.48;80.88
18137;BME280;9194;42.632;23.298;2022-07-23T05:52:13;92970.22;;;21.73;79.81
18137;BME280;9194;42.632;23.298;2022-07-23T05:57:33;92969.78;;;21.95;76.51
18137;BME280;9194;42.632;23.298;2022-07-23T06:02:35;92972.81;;;22.07;76.80
18137;BME280;9194;42.632;23.298;2022-07-23T06:07:37;92975.72;;;22.53;69.67
18137;BME280;9194;42.632;23.298;2022-07-23T06:12:39;92975.69;;;22.77;68.89
18137;BME280;9194;42.632;23.298;2022-07-23T06:17:41;92964.91;;;22.87;68.88
18137;BME280;9194;42.632;23.298;2022-07-23T06:22:43;92961.47;;;22.86;69.69
18137;BME280;9194;42.632;23.298;2022-07-23T06:27:44;92963.59;;;23.03;71.54
18137;BME280;9194;42.632;23.298;2022-07-23T06:32:47;92966.56;;;23.53;66.69
18137;BME280;9194;42.632;23.298;2022-07-23T06:37:49;92968.94;;;23.68;66.97
18137;BME280;9194;42.632;23.298;2022-07-23T06:43:13;92971.16;;;23.93;62.51
18137;BME280;9194;42.632;23.298;2022-07-23T06:48:14;92961.91;;;24.04;61.63
18137;BME280;9194;42.632;23.298;2022-07-23T06:53:15;92964.66;;;24.13;62.20
18137;BME280;9194;42.632;23.298;2022-07-23T06:58:20;92956.81;;;24.22;60.57
18137;BME280;9194;42.632;23.298;2022-07-23T07:03:21;92952.25;;;24.36;61.14
18137;BME280;9194;42.632;23.298;2022-07-23T07:08:23;92963.78;;;24.45;61.40
18137;BME280;9194;42.632;23.298;2022-07-23T07:13:24;92960.53;;;24.48;59.88
18137;BME280;9194;42.632;23.298;2022-07-23T07:18:26;92953.31;;;24.62;58.47
18137;BME280;9194;42.632;23.298;2022-07-23T07:23:27;92961.06;;;24.72;58.71
18137;BME280;9194;42.632;23.298;2022-07-23T07:28:28;92949.81;;;24.89;57.67
18137;BME280;9194;42.632;23.298;2022-07-23T07:33:30;92942.88;;;25.02;56.79
18137;BME280;9194;42.632;23.298;2022-07-23T07:38:31;92939.13;;;25.25;58.39
18137;BME280;9194;42.632;23.298;2022-07-23T07:43:32;92942.44;;;25.30;57.22
18137;BME280;9194;42.632;23.298;2022-07-23T07:48:34;92941.91;;;25.64;56.92
18137;BME280;9194;42.632;23.298;2022-07-23T07:53:35;92941.84;;;25.87;56.59
18137;BME280;9194;42.632;23.298;2022-07-23T07:58:36;92942.38;;;25.97;57.11
18137;BME280;9194;42.632;23.298;2022-07-23T08:03:38;92932.59;;;26.24;55.57
18137;BME280;9194;42.632;23.298;2022-07-23T08:08:39;92932.66;;;26.32;55.42
18137;BME280;9194;42.632;23.298;2022-07-23T08:13:40;92933.63;;;26.53;54.46
18137;BME280;9194;42.632;23.298;2022-07-23T08:18:42;92933.19;;;26.86;54.08
18137;BME280;9194;42.632;23.298;2022-07-23T08:23:55;92932.75;;;27.01;52.70
18137;BME280;9194;42.632;23.298;2022-07-23T08:28:57;92931.97;;;27.09;53.05
18137;BME280;9194;42.632;23.298;2022-07-23T08:34:01;92929.13;;;27.31;51.98
18137;BME280;9194;42.632;23.298;2022-07-23T08:39:03;92928.31;;;27.39;52.15
18137;BME280;9194;42.632;23.298;2022-07-23T08:44:07;92938.06;;;27.61;52.96
18137;BME280;9194;42.632;23.298;2022-07-23T08:49:08;92931.69;;;27.92;51.83
18137;BME280;9194;42.632;23.298;2022-07-23T08:54:10;92924.56;;;28.13;52.28
18137;BME280;9194;42.632;23.298;2022-07-23T08:59:12;92931.13;;;28.15;49.40
18137;BME280;9194;42.632;23.298;2022-07-23T09:04:14;92927.97;;;28.22;50.71
18137;BME280;9194;42.632;23.298;2022-07-23T09:09:18;92919.16;;;28.51;51.25
18137;BME280;9194;42.632;23.298;2022-07-23T09:14:36;92926.59;;;28.66;49.02
18137;BME280;9194;42.632;23.298;2022-07-23T09:19:38;92927.44;;;28.87;49.10
18137;BME280;9194;42.632;23.298;2022-07-23T09:30:07;92917.75;;;29.16;45.56
18137;BME280;9194;42.632;23.298;2022-07-23T09:35:08;92913.06;;;29.33;44.40
18137;BME280;9194;42.632;23.298;2022-07-23T09:40:10;92914.25;;;29.57;44.63
18137;BME280;9194;42.632;23.298;2022-07-23T09:45:14;92902.09;;;29.71;40.72
18137;BME280;9194;42.632;23.298;2022-07-23T09:50:19;92905.47;;;29.80;39.71
18137;BME280;9194;42.632;23.298;2022-07-23T09:55:31;92907.06;;;29.82;40.66
18137;BME280;9194;42.632;23.298;2022-07-23T10:00:40;92901.53;;;30.11;40.46
18137;BME280;9194;42.632;23.298;2022-07-23T10:05:42;92897.06;;;30.27;39.39
18137;BME280;9194;42.632;23.298;2022-07-23T10:10:56;92886.31;;;30.27;41.32
18137;BME280;9194;42.632;23.298;2022-07-23T10:16:23;92881.59;;;30.36;40.24
18137;BME280;9194;42.632;23.298;2022-07-23T10:21:37;92880.81;;;30.60;35.68
18137;BME280;9194;42.632;23.298;2022-07-23T10:27:02;92880.88;;;30.76;35.42
18137;BME280;9194;42.632;23.298;2022-07-23T10:37:42;92878.69;;;31.06;33.68
18137;BME280;9194;42.632;23.298;2022-07-23T10:42:46;92871.38;;;31.18;35.18
18137;BME280;9194;42.632;23.298;2022-07-23T10:47:48;92862.94;;;31.48;32.83
18137;BME280;9194;42.632;23.298;2022-07-23T10:53:08;92860.66;;;31.62;32.26
18137;BME280;9194;42.632;23.298;2022-07-23T10:58:10;92857.78;;;31.70;33.42
18137;BME280;9194;42.632;23.298;2022-07-23T11:03:42;92844.16;;;31.63;33.58
18137;BME280;9194;42.632;23.298;2022-07-23T11:09:23;92836.13;;;31.51;33.33
18137;BME280;9194;42.632;23.298;2022-07-23T11:35:39;92818.97;;;31.87;31.01
18137;BME280;9194;42.632;23.298;2022-07-23T11:40:44;92820.38;;;31.97;30.19
18137;BME280;9194;42.632;23.298;2022-07-23T11:45:48;92809.84;;;32.07;28.00
18137;BME280;9194;42.632;23.298;2022-07-23T11:50:50;92801.94;;;31.99;29.99
18137;BME280;9194;42.632;23.298;2022-07-23T11:55:52;92802.78;;;32.34;30.32
18137;BME280;9194;42.632;23.298;2022-07-23T12:00:55;92794.19;;;32.29;29.32
18137;BME280;9194;42.632;23.298;2022-07-23T12:06:00;92802.50;;;32.39;27.80
18137;BME280;9194;42.632;23.298;2022-07-23T12:16:44;92784.13;;;32.26;27.68
18137;BME280;9194;42.632;23.298;2022-07-23T12:21:45;92783.63;;;32.39;27.76
18137;BME280;9194;42.632;23.298;2022-07-23T12:27:09;92775.16;;;32.56;30.12
18137;BME280;9194;42.632;23.298;2022-07-23T12:32:25;92779.41;;;32.57;27.26
18137;BME280;9194;42.632;23.298;2022-07-23T12:37:37;92773.22;;;32.57;25.73
18137;BME280;9194;42.632;23.298;2022-07-23T12:42:42;92768.06;;;32.48;27.00
18137;BME280;9194;42.632;23.298;2022-07-23T12:58:18;92756.94;;;32.50;23.40
18137;BME280;9194;42.632;23.298;2022-07-23T13:03:25;92755.91;;;32.39;26.66
18137;BME280;9194;42.632;23.298;2022-07-23T13:08:28;92754.28;;;32.34;24.77
18137;BME280;9194;42.632;23.298;2022-07-23T13:13:32;92754.66;;;32.52;26.77
18137;BME280;9194;42.632;23.298;2022-07-23T13:18:34;92746.66;;;32.55;23.80
18137;BME280;9194;42.632;23.298;2022-07-23T13:23:35;92754.00;;;32.58;24.16
18137;BME280;9194;42.632;23.298;2022-07-23T13:28:38;92750.44;;;32.70;23.87
18137;BME280;9194;42.632;23.298;2022-07-23T13:33:39;92744.44;;;32.61;24.94
18137;BME280;9194;42.632;23.298;2022-07-23T13:38:41;92740.03;;;32.53;23.66
18137;BME280;9194;42.632;23.298;2022-07-23T13:43:42;92736.06;;;32.47;26.18
18137;BME280;9194;42.632;23.298;2022-07-23T13:48:43;92733.72;;;32.45;24.45
18137;BME280;9194;42.632;23.298;2022-07-23T13:53:45;92731.13;;;32.49;27.51
18137;BME280;9194;42.632;23.298;2022-07-23T13:58:46;92726.00;;;32.44;27.48
18137;BME280;9194;42.632;23.298;2022-07-23T14:03:48;92727.25;;;32.31;26.13
18137;BME280;9194;42.632;23.298;2022-07-23T14:08:49;92721.72;;;32.24;28.06
18137;BME280;9194;42.632;23.298;2022-07-23T14:13:50;92725.06;;;32.36;26.42
18137;BME280;9194;42.632;23.298;2022-07-23T14:18:52;92725.13;;;32.20;27.17
18137;BME280;9194;42.632;23.298;2022-07-23T14:23:56;92720.63;;;31.93;27.53
18137;BME280;9194;42.632;23.298;2022-07-23T14:28:57;92720.75;;;31.81;27.69
18137;BME280;9194;42.632;23.298;2022-07-23T14:33:58;92722.06;;;31.71;27.54
18137;BME280;9194;42.632;23.298;2022-07-23T14:39:00;92723.09;;;31.83;27.94
18137;BME280;9194;42.632;23.298;2022-07-23T14:44:04;92709.72;;;32.21;27.00
18137;BME280;9194;42.632;23.298;2022-07-23T14:49:06;92709.81;;;32.25;25.54
18137;BME280;9194;42.632;23.298;2022-07-23T14:54:08;92697.41;;;32.39;27.77
18137;BME280;9194;42.632;23.298;2022-07-23T14:59:09;92697.13;;;32.25;26.78
18137;BME280;9194;42.632;23.298;2022-07-23T15:04:10;92693.03;;;31.96;26.63
18137;BME280;9194;42.632;23.298;2022-07-23T15:09:12;92683.59;;;31.55;28.22
18137;BME280;9194;42.632;23.298;2022-07-23T15:14:13;92682.66;;;31.16;31.37
18137;BME280;9194;42.632;23.298;2022-07-23T15:19:15;92683.13;;;30.75;35.87
18137;BME280;9194;42.632;23.298;2022-07-23T15:24:16;92675.63;;;30.40;38.25
18137;BME280;9194;42.632;23.298;2022-07-23T15:29:20;92673.72;;;30.13;40.13
18137;BME280;9194;42.632;23.298;2022-07-23T15:34:22;92675.00;;;29.91;41.26
18137;BME280;9194;42.632;23.298;2022-07-23T15:39:23;92676.03;;;29.74;41.99
18137;BME280;9194;42.632;23.298;2022-07-23T15:44:25;92684.75;;;29.59;43.38
18137;BME280;9194;42.632;23.298;2022-07-23T15:49:27;92673.38;;;29.38;43.11
18137;BME280;9194;42.632;23.298;2022-07-23T15:54:29;92684.50;;;29.16;42.55
18137;BME280;9194;42.632;23.298;2022-07-23T15:59:31;92685.47;;;28.87;43.79
18137;BME280;9194;42.632;23.298;2022-07-23T16:04:33;92679.13;;;28.58;46.26
18137;BME280;9194;42.632;23.298;2022-07-23T16:09:34;92681.56;;;28.31;47.51
18137;BME280;9194;42.632;23.298;2022-07-23T16:14:36;92685.25;;;28.05;48.81
18137;BME280;9194;42.632;23.298;2022-07-23T16:19:37;92674.59;;;27.76;49.61
18137;BME280;9194;42.632;23.298;2022-07-23T16:24:39;92681.03;;;27.54;49.67
18137;BME280;9194;42.632;23.298;2022-07-23T16:29:40;92679.19;;;27.37;50.23
18137;BME280;9194;42.632;23.298;2022-07-23T16:34:41;92686.06;;;27.18;50.74
18137;BME280;9194;42.632;23.298;2022-07-23T16:39:42;92683.16;;;27.02;51.30
18137;BME280;9194;42.632;23.298;2022-07-23T16:44:44;92691.34;;;26.80;52.18
18137;BME280;9194;42.632;23.298;2022-07-23T16:49:46;92688.91;;;26.57;52.61
18137;BME280;9194;42.632;23.298;2022-07-23T16:54:48;92694.13;;;26.37;52.58
18137;BME280;9194;42.632;23.298;2022-07-23T16:59:49;92698.19;;;26.17;53.17
18137;BME280;9194;42.632;23.298;2022-07-23T17:04:51;92695.06;;;25.98;53.32
18137;BME280;9194;42.632;23.298;2022-07-23T17:09:52;92693.63;;;25.74;53.96
18137;BME280;9194;42.632;23.298;2022-07-23T17:14:54;92687.00;;;25.55;54.43
18137;BME280;9194;42.632;23.298;2022-07-23T17:19:55;92686.31;;;25.32;53.81
18137;BME280;9194;42.632;23.298;2022-07-23T17:24:56;92683.75;;;25.10;54.58
18137;BME280;9194;42.632;23.298;2022-07-23T17:29:57;92680.06;;;24.88;54.16
18137;BME280;9194;42.632;23.298;2022-07-23T17:34:59;92689.16;;;24.65;54.58
18137;BME280;9194;42.632;23.298;2022-07-23T17:40:01;92680.63;;;24.46;54.31
18137;BME280;9194;42.632;23.298;2022-07-23T17:45:04;92693.31;;;24.27;55.71
18137;BME280;9194;42.632;23.298;2022-07-23T17:50:05;92687.34;;;24.07;55.27
18137;BME280;9194;42.632;23.298;2022-07-23T17:55:07;92690.19;;;23.89;56.50
18137;BME280;9194;42.632;23.298;2022-07-23T18:00:11;92695.56;;;23.75;55.87
18137;BME280;9194;42.632;23.298;2022-07-23T18:05:13;92699.31;;;23.60;55.82
18137;BME280;9194;42.632;23.298;2022-07-23T18:10:15;92705.66;;;23.51;55.44
18137;BME280;9194;42.632;23.298;2022-07-23T18:15:17;92707.09;;;23.43;55.51
18137;BME280;9194;42.632;23.298;2022-07-23T18:20:19;92708.69;;;23.30;56.09
18137;BME280;9194;42.632;23.298;2022-07-23T18:25:21;92711.53;;;23.20;55.47
18137;BME280;9194;42.632;23.298;2022-07-23T18:30:22;92709.66;;;23.07;56.31
18137;BME280;9194;42.632;23.298;2022-07-23T18:35:23;92721.78;;;23.00;56.71
18137;BME280;9194;42.632;23.298;2022-07-23T18:40:25;92727.47;;;22.93;56.90
18137;BME280;9194;42.632;23.298;2022-07-23T18:45:26;92726.28;;;22.85;56.43
18137;BME280;9194;42.632;23.298;2022-07-23T18:50:27;92733.47;;;22.85;56.08
18137;BME280;9194;42.632;23.298;2022-07-23T18:55:29;92738.34;;;22.78;56.11
18137;BME280;9194;42.632;23.298;2022-07-23T19:00:32;92743.75;;;22.73;55.83
18137;BME280;9194;42.632;23.298;2022-07-23T19:05:34;92755.66;;;22.75;55.65
18137;BME280;9194;42.632;23.298;2022-07-23T19:10:37;92751.22;;;22.71;55.24
18137;BME280;9194;42.632;23.298;2022-07-23T19:15:39;92754.44;;;22.68;55.04
18137;BME280;9194;42.632;23.298;2022-07-23T19:20:40;92747.53;;;22.67;55.27
18137;BME280;9194;42.632;23.298;2022-07-23T19:25:41;92749.72;;;22.65;55.70
18137;BME280;9194;42.632;23.298;2022-07-23T19:30:43;92759.84;;;22.63;55.78
18137;BME280;9194;42.632;23.298;2022-07-23T19:35:44;92760.72;;;22.58;55.58
18137;BME280;9194;42.632;23.298;2022-07-23T19:40:48;92758.63;;;22.55;55.73
18137;BME280;9194;42.632;23.298;2022-07-23T19:45:57;92768.25;;;22.51;56.05
18137;BME280;9194;42.632;23.298;2022-07-23T19:51:00;92764.81;;;22.50;55.94
18137;BME280;9194;42.632;23.298;2022-07-23T19:56:03;92763.22;;;22.49;55.17
18137;BME280;9194;42.632;23.298;2022-07-23T20:01:05;92758.78;;;22.45;55.97
18137;BME280;9194;42.632;23.298;2022-07-23T20:06:06;92752.50;;;22.41;56.34
18137;BME280;9194;42.632;23.298;2022-07-23T20:11:07;92756.03;;;22.36;56.83
18137;BME280;9194;42.632;23.298;2022-07-23T20:16:34;92766.69;;;22.31;56.55
18137;BME280;9194;42.632;23.298;2022-07-23T20:21:36;92761.69;;;22.30;56.86
18137;BME280;9194;42.632;23.298;2022-07-23T20:26:38;92762.53;;;22.25;57.62
18137;BME280;9194;42.632;23.298;2022-07-23T20:31:40;92753.88;;;22.20;57.73
18137;BME280;9194;42.632;23.298;2022-07-23T20:36:42;92757.19;;;22.11;58.18
18137;BME280;9194;42.632;23.298;2022-07-23T20:47:55;92752.81;;;22.02;58.88
18137;BME280;9194;42.632;23.298;2022-07-23T20:52:58;92748.16;;;21.94;58.98
18137;BME280;9194;42.632;23.298;2022-07-23T20:57:59;92755.59;;;21.92;59.17
18137;BME280;9194;42.632;23.298;2022-07-23T21:03:01;92751.94;;;21.88;59.35
18137;BME280;9194;42.632;23.298;2022-07-23T21:08:02;92756.75;;;21.86;59.64
18137;BME280;9194;42.632;23.298;2022-07-23T21:13:03;92765.84;;;21.80;59.91
18137;BME280;9194;42.632;23.298;2022-07-23T21:18:05;92759.53;;;21.76;60.25
18137;BME280;9194;42.632;23.298;2022-07-23T21:23:06;92756.69;;;21.72;61.09
18137;BME280;9194;42.632;23.298;2022-07-23T21:28:08;92754.44;;;21.60;61.19
18137;BME280;9194;42.632;23.298;2022-07-23T21:33:09;92757.09;;;21.60;60.59
18137;BME280;9194;42.632;23.298;2022-07-23T21:38:10;92762.50;;;21.50;61.54
18137;BME280;9194;42.632;23.298;2022-07-23T21:43:11;92768.78;;;21.36;62.37
18137;BME280;9194;42.632;23.298;2022-07-23T21:48:13;92767.34;;;21.24;63.76
18137;BME280;9194;42.632;23.298;2022-07-23T21:53:15;92766.34;;;21.15;63.79
18137;BME280;9194;42.632;23.298;2022-07-23T21:58:17;92769.63;;;21.07;64.12
18137;BME280;9194;42.632;23.298;2022-07-23T22:03:18;92764.94;;;20.99;64.57
18137;BME280;9194;42.632;23.298;2022-07-23T22:08:19;92761.53;;;20.94;63.58
18137;BME280;9194;42.632;23.298;2022-07-23T22:13:21;92760.81;;;20.88;64.44
18137;BME280;9194;42.632;23.298;2022-07-23T22:18:22;92763.25;;;20.84;64.76
18137;BME280;9194;42.632;23.298;2022-07-23T22:23:23;92768.56;;;20.79;66.54
18137;BME280;9194;42.632;23.298;2022-07-23T22:28:25;92769.13;;;20.76;66.41
18137;BME280;9194;42.632;23.298;2022-07-23T22:33:26;92775.00;;;20.73;66.23
18137;BME280;9194;42.632;23.298;2022-07-23T22:38:28;92763.31;;;20.74;65.78
18137;BME280;9194;42.632;23.298;2022-07-23T22:43:29;92772.63;;;20.72;63.79
18137;BME280;9194;42.632;23.298;2022-07-23T22:48:30;92771.81;;;20.71;62.87
18137;BME280;9194;42.632;23.298;2022-07-23T22:54:04;92766.00;;;20.69;63.21
18137;BME280;9194;42.632;23.298;2022-07-23T22:59:05;92763.41;;;20.64;63.45
18137;BME280;9194;42.632;23.298;2022-07-23T23:04:07;92766.13;;;20.59;65.53
18137;BME280;9194;42.632;23.298;2022-07-23T23:09:08;92763.78;;;20.53;66.70
18137;BME280;9194;42.632;23.298;2022-07-23T23:14:09;92775.22;;;20.48;66.11
18137;BME280;9194;42.632;23.298;2022-07-23T23:19:10;92774.69;;;20.46;66.45
18137;BME280;9194;42.632;23.298;2022-07-23T23:24:12;92779.47;;;20.44;65.73
18137;BME280;9194;42.632;23.298;2022-07-23T23:29:13;92781.88;;;20.40;64.89
18137;BME280;9194;42.632;23.298;2022-07-23T23:34:15;92784.28;;;20.37;66.13
18137;BME280;9194;42.632;23.298;2022-07-23T23:39:16;92789.06;;;20.30;66.13
18137;BME280;9194;42.632;23.298;2022-07-23T23:44:17;92778.53;;;20.25;64.84
18137;BME280;9194;42.632;23.298;2022-07-23T23:49:22;92775.94;;;20.20;66.46
18137;BME280;9194;42.632;23.298;2022-07-23T23:54:23;92779.16;;;20.12;67.79
18137;BME280;9194;42.632;23.298;2022-07-23T23:59:25;92778.63;;;20.09;67.98
